createdAt,value
2018-02-10T00:01:13.976Z,101326.69
2018-02-10T00:03:43.125Z,101329.38
2018-02-10T00:06:12.282Z,101325.95
2018-02-10T00:08:41.492Z,101323.92
2018-02-10T00:11:10.632Z,101327.58
2018-02-10T00:13:40.498Z,101327.73
2018-02-10T00:16:09.827Z,101322.04
2018-02-10T00:18:39.229Z,101316.23
2018-02-10T00:21:08.811Z,101329.19
2018-02-10T00:23:37.908Z,101325.19
2018-02-10T00:26:07.529Z,101336.38
2018-02-10T00:28:37.017Z,101342.64
2018-02-10T00:31:06.244Z,101336.92
2018-02-10T00:33:35.649Z,101331.05
2018-02-10T00:36:05.330Z,101328.11
2018-02-10T00:38:35.052Z,101327.23
2018-02-10T00:41:04.651Z,101315.05
2018-02-10T00:43:34.347Z,101318.39
2018-02-10T00:46:03.852Z,101314.80
2018-02-10T00:48:33.128Z,101318.36
2018-02-10T00:51:02.485Z,101324.06
2018-02-10T00:53:31.908Z,101324.20
2018-02-10T00:56:00.978Z,101321.29
2018-02-10T00:58:30.114Z,101313.48
2018-02-10T01:00:59.653Z,101319.91
2018-02-10T01:03:28.664Z,101316.80
2018-02-10T01:05:58.226Z,101316.25
2018-02-10T01:08:27.526Z,101295.68
2018-02-10T01:10:57.268Z,101290.59
2018-02-10T01:13:26.662Z,101292.62
2018-02-10T01:15:55.806Z,101289.32
2018-02-10T01:18:25.217Z,101285.83
2018-02-10T01:20:54.399Z,101291.37
2018-02-10T01:23:23.734Z,101283.72
2018-02-10T01:25:53.132Z,101284.77
2018-02-10T01:28:22.590Z,101280.49
2018-02-10T01:30:52.091Z,101283.71
2018-02-10T01:33:21.913Z,101282.35
2018-02-10T01:35:51.517Z,101286.81
2018-02-10T01:38:20.813Z,101296.63
2018-02-10T01:40:50.635Z,101293.68
2018-02-10T01:43:20.344Z,101292.71
2018-02-10T01:45:49.545Z,101287.17
2018-02-10T01:48:18.984Z,101278.84
2018-02-10T01:50:48.230Z,101277.98
2018-02-10T01:53:17.690Z,101272.60
2018-02-10T01:55:46.954Z,101277.73
2018-02-10T01:58:16.460Z,101262.99
2018-02-10T02:00:46.258Z,101275.67
2018-02-10T02:03:15.667Z,101261.31
2018-02-10T02:05:45.046Z,101261.74
2018-02-10T02:08:14.470Z,101261.50
2018-02-10T02:10:43.966Z,101260.72
2018-02-10T02:13:13.460Z,101266.56
2018-02-10T02:15:42.782Z,101267.30
2018-02-10T02:18:12.128Z,101259.80
2018-02-10T02:20:41.444Z,101254.05
2018-02-10T02:23:11.147Z,101252.14
2018-02-10T02:25:40.904Z,101250.70
2018-02-10T02:28:10.544Z,101257.59
2018-02-10T02:30:40.232Z,101272.36
2018-02-10T02:33:09.598Z,101274.75
2018-02-10T02:35:39.170Z,101271.22
2018-02-10T02:38:08.952Z,101278.48
2018-02-10T02:40:38.725Z,101276.85
2018-02-10T02:43:08.590Z,101278.95
2018-02-10T02:45:38.287Z,101272.86
2018-02-10T02:48:07.709Z,101272.02
2018-02-10T02:50:37.108Z,101271.92
2018-02-10T02:53:06.381Z,101277.23
2018-02-10T02:55:36.070Z,101281.34
2018-02-10T02:58:05.390Z,101279.92
2018-02-10T03:00:34.797Z,101273.80
2018-02-10T03:03:04.337Z,101279.67
2018-02-10T03:05:33.705Z,101279.17
2018-02-10T03:08:03.116Z,101277.48
2018-02-10T03:10:32.656Z,101289.05
2018-02-10T03:13:01.735Z,101296.55
2018-02-10T03:15:31.162Z,101298.09
2018-02-10T03:18:00.449Z,101299.89
2018-02-10T03:20:29.781Z,101308.19
2018-02-10T03:22:59.419Z,101309.58
2018-02-10T03:25:28.946Z,101295.58
2018-02-10T03:27:58.368Z,101286.92
2018-02-10T03:30:27.810Z,101277.84
2018-02-10T03:32:57.552Z,101278.34
2018-02-10T03:35:27.985Z,101282.64
2018-02-10T03:37:57.302Z,101277.44
2018-02-10T03:40:26.902Z,101271.57
2018-02-10T03:42:56.203Z,101278.16
2018-02-10T03:45:25.833Z,101284.52
2018-02-10T03:47:55.312Z,101280.69
2018-02-10T03:50:24.629Z,101282.38
2018-02-10T03:52:53.625Z,101290.70
2018-02-10T03:55:23.704Z,101295.73
2018-02-10T03:57:53.089Z,101305.03
2018-02-10T04:00:22.586Z,101308.32
2018-02-10T04:02:52.140Z,101299.95
2018-02-10T04:05:21.733Z,101305.30
2018-02-10T04:07:50.994Z,101311.45
2018-02-10T04:10:20.451Z,101310.91
2018-02-10T04:12:49.565Z,101303.97
2018-02-10T04:15:19.089Z,101303.70
2018-02-10T04:17:48.833Z,101299.89
2018-02-10T04:20:18.262Z,101295.14
2018-02-10T04:22:47.824Z,101295.28
2018-02-10T04:25:17.380Z,101297.43
2018-02-10T04:27:47.008Z,101297.17
2018-02-10T04:30:16.478Z,101304.79
2018-02-10T04:32:46.058Z,101301.96
2018-02-10T04:35:15.668Z,101296.55
2018-02-10T04:37:45.143Z,101287.09
2018-02-10T04:40:14.596Z,101286.81
2018-02-10T04:42:44.003Z,101293.95
2018-02-10T04:45:13.515Z,101282.07
2018-02-10T04:47:42.964Z,101286.50
2018-02-10T04:50:12.384Z,101283.66
2018-02-10T04:52:41.965Z,101283.95
2018-02-10T04:55:11.374Z,101280.94
2018-02-10T04:57:40.754Z,101272.67
2018-02-10T05:00:10.309Z,101272.47
2018-02-10T05:02:40.033Z,101270.42
2018-02-10T05:05:10.185Z,101264.91
2018-02-10T05:07:39.509Z,101267.33
2018-02-10T05:10:09.300Z,101264.62
2018-02-10T05:12:38.679Z,101265.70
2018-02-10T05:15:07.858Z,101265.91
2018-02-10T05:17:37.137Z,101263.22
2018-02-10T05:20:06.540Z,101269.00
2018-02-10T05:22:36.194Z,101263.03
2018-02-10T05:25:05.744Z,101271.16
2018-02-10T05:27:35.120Z,101285.94
2018-02-10T05:30:04.529Z,101284.41
2018-02-10T05:32:34.995Z,101281.13
2018-02-10T05:35:04.401Z,101287.53
2018-02-10T05:37:33.573Z,101289.84
2018-02-10T05:40:02.610Z,101280.31
2018-02-10T05:42:31.994Z,101278.88
2018-02-10T05:45:01.219Z,101277.11
2018-02-10T05:47:30.640Z,101264.45
2018-02-10T05:50:00.131Z,101267.30
2018-02-10T05:52:29.420Z,101266.94
2018-02-10T05:54:58.620Z,101261.92
2018-02-10T05:57:28.014Z,101267.55
2018-02-10T05:59:57.098Z,101270.25
2018-02-10T06:02:26.230Z,101271.22
2018-02-10T06:04:55.436Z,101276.94
2018-02-10T06:07:24.737Z,101279.06
2018-02-10T06:09:53.829Z,101285.29
2018-02-10T06:12:23.066Z,101286.64
2018-02-10T06:14:52.229Z,101298.14
2018-02-10T06:17:21.735Z,101301.00
2018-02-10T06:19:50.902Z,101301.52
2018-02-10T06:22:20.068Z,101287.07
2018-02-10T06:24:49.539Z,101286.91
2018-02-10T06:27:18.832Z,101278.23
2018-02-10T06:29:47.721Z,101277.77
2018-02-10T06:32:16.758Z,101279.08
2018-02-10T06:34:45.767Z,101276.67
2018-02-10T06:37:15.219Z,101278.97
2018-02-10T06:39:44.617Z,101267.55
2018-02-10T06:42:13.633Z,101261.74
2018-02-10T06:44:42.819Z,101277.35
2018-02-10T06:47:11.730Z,101271.41
2018-02-10T06:49:41.146Z,101261.94
2018-02-10T06:52:10.623Z,101265.84
2018-02-10T06:54:39.984Z,101263.36
2018-02-10T06:57:09.459Z,101278.28
2018-02-10T06:59:39.029Z,101286.28
2018-02-10T07:02:08.799Z,101287.09
2018-02-10T07:04:38.356Z,101277.73
2018-02-10T07:07:08.094Z,101287.27
2018-02-10T07:09:37.328Z,101283.46
2018-02-10T07:12:07.066Z,101282.97
2018-02-10T07:14:36.761Z,101281.50
2018-02-10T07:17:06.230Z,101277.07
2018-02-10T07:19:35.479Z,101294.45
2018-02-10T07:22:04.884Z,101289.27
2018-02-10T07:24:34.597Z,101285.82
2018-02-10T07:27:03.918Z,101284.35
2018-02-10T07:29:33.714Z,101288.38
2018-02-10T07:32:03.129Z,101286.16
2018-02-10T07:34:32.466Z,101288.80
2018-02-10T07:37:02.048Z,101289.58
2018-02-10T07:39:31.238Z,101289.22
2018-02-10T07:42:01.031Z,101285.10
2018-02-10T07:44:30.784Z,101298.44
2018-02-10T07:47:00.266Z,101298.98
2018-02-10T07:49:29.847Z,101292.59
2018-02-10T07:51:58.917Z,101296.55
2018-02-10T07:54:27.974Z,101277.92
2018-02-10T07:56:57.718Z,101277.60
2018-02-10T07:59:27.009Z,101270.09
2018-02-10T08:01:56.289Z,101263.80
2018-02-10T08:04:25.725Z,101256.72
2018-02-10T08:06:55.058Z,101268.45
2018-02-10T08:09:24.580Z,101264.65
2018-02-10T08:11:53.901Z,101261.09
2018-02-10T08:14:23.675Z,101268.71
2018-02-10T08:16:52.892Z,101271.98
2018-02-10T08:19:22.381Z,101265.95
2018-02-10T08:21:52.601Z,101271.16
2018-02-10T08:24:22.069Z,101274.06
2018-02-10T08:26:51.566Z,101258.83
2018-02-10T08:29:21.093Z,101270.10
2018-02-10T08:31:50.672Z,101270.61
2018-02-10T08:34:20.163Z,101271.20
2018-02-10T08:36:49.569Z,101265.76
2018-02-10T08:39:19.092Z,101265.67
2018-02-10T08:41:48.611Z,101268.79
2018-02-10T08:44:18.009Z,101276.22
2018-02-10T08:46:47.894Z,101273.19
2018-02-10T08:49:17.346Z,101277.73
2018-02-10T08:51:46.893Z,101271.26
2018-02-10T08:54:16.036Z,101267.91
2018-02-10T08:56:45.278Z,101272.27
2018-02-10T08:59:14.545Z,101262.79
2018-02-10T09:01:43.854Z,101268.38
2018-02-10T09:04:13.629Z,101263.49
2018-02-10T09:06:42.868Z,101251.66
2018-02-10T09:09:11.965Z,101254.40
2018-02-10T09:11:41.101Z,101236.73
2018-02-10T09:14:09.953Z,101248.22
2018-02-10T09:16:39.267Z,101245.80
2018-02-10T09:19:08.180Z,101246.08
2018-02-10T09:21:37.564Z,101235.22
2018-02-10T09:24:06.955Z,101234.04
2018-02-10T09:26:36.122Z,101237.78
2018-02-10T09:29:05.250Z,101231.59
2018-02-10T09:31:34.505Z,101218.82
2018-02-10T09:34:03.598Z,101221.88
2018-02-10T09:36:32.850Z,101218.16
2018-02-10T09:39:02.392Z,101210.27
2018-02-10T09:41:31.489Z,101206.16
2018-02-10T09:44:00.617Z,101202.28
2018-02-10T09:46:29.862Z,101204.64
2018-02-10T09:48:59.145Z,101200.48
2018-02-10T09:51:28.441Z,101197.42
2018-02-10T09:53:57.740Z,101189.87
2018-02-10T09:56:26.797Z,101190.25
2018-02-10T09:58:56.110Z,101197.21
2018-02-10T10:01:25.282Z,101201.70
2018-02-10T10:03:54.681Z,101192.84
2018-02-10T10:06:23.985Z,101184.61
2018-02-10T10:08:53.451Z,101189.83
2018-02-10T10:11:22.689Z,101201.50
2018-02-10T10:13:51.955Z,101191.27
2018-02-10T10:16:21.107Z,101191.59
2018-02-10T10:18:50.296Z,101183.13
2018-02-10T10:21:19.585Z,101181.15
2018-02-10T10:23:48.664Z,101170.56
2018-02-10T10:26:17.686Z,101167.05
2018-02-10T10:28:47.078Z,101166.25
2018-02-10T10:31:16.561Z,101168.05
2018-02-10T10:33:45.744Z,101157.92
2018-02-10T10:36:15.402Z,101151.56
2018-02-10T10:38:44.657Z,101155.08
2018-02-10T10:41:13.624Z,101152.13
2018-02-10T10:43:42.620Z,101149.06
2018-02-10T10:46:11.704Z,101143.25
2018-02-10T10:48:41.533Z,101134.26
2018-02-10T10:51:11.403Z,101131.42
2018-02-10T10:53:40.749Z,101126.23
2018-02-10T10:56:09.653Z,101121.63
2018-02-10T10:58:38.821Z,101111.89
2018-02-10T11:01:07.947Z,101116.80
2018-02-10T11:03:37.461Z,101109.88
2018-02-10T11:06:06.967Z,101104.08
2018-02-10T11:08:36.470Z,101103.17
2018-02-10T11:11:06.083Z,101100.86
2018-02-10T11:13:35.288Z,101091.57
2018-02-10T11:16:04.696Z,101102.75
2018-02-10T11:18:34.115Z,101095.00
2018-02-10T11:21:03.174Z,101083.98
2018-02-10T11:23:32.382Z,101085.30
2018-02-10T11:26:01.590Z,101093.66
2018-02-10T11:28:31.101Z,101078.03
2018-02-10T11:31:00.247Z,101095.38
2018-02-10T11:33:29.833Z,101076.33
2018-02-10T11:35:59.218Z,101072.99
2018-02-10T11:38:28.626Z,101072.42
2018-02-10T11:40:58.007Z,101071.53
2018-02-10T11:43:27.576Z,101073.19
2018-02-10T11:45:57.010Z,101066.56
2018-02-10T11:48:26.336Z,101065.78
2018-02-10T11:50:55.610Z,101061.62
2018-02-10T11:53:24.701Z,101057.37
2018-02-10T11:55:54.087Z,101054.63
2018-02-10T11:58:23.329Z,101045.15
2018-02-10T12:00:52.730Z,101043.72
2018-02-10T12:03:21.977Z,101047.37
2018-02-10T12:05:51.302Z,101044.84
2018-02-10T12:08:20.916Z,101038.48
2018-02-10T12:10:50.228Z,101046.17
2018-02-10T12:13:19.820Z,101052.40
2018-02-10T12:15:48.948Z,101047.70
2018-02-10T12:18:18.050Z,101040.91
2018-02-10T12:20:47.326Z,101045.30
2018-02-10T12:23:16.945Z,101040.02
2018-02-10T12:25:46.430Z,101041.41
2018-02-10T12:28:15.892Z,101036.97
2018-02-10T12:30:45.097Z,101032.78
2018-02-10T12:33:14.329Z,101030.09
2018-02-10T12:35:43.779Z,101020.31
2018-02-10T12:38:13.417Z,101016.80
2018-02-10T12:40:43.121Z,101018.99
2018-02-10T12:43:13.169Z,101004.87
2018-02-10T12:45:42.781Z,100992.28
2018-02-10T12:48:17.709Z,101002.06
2018-02-10T12:50:47.128Z,100994.72
2018-02-10T12:53:16.407Z,100981.47
2018-02-10T12:55:45.897Z,100970.60
2018-02-10T12:58:15.297Z,100973.85
2018-02-10T13:00:44.434Z,100971.92
2018-02-10T13:03:14.727Z,100971.81
2018-02-10T13:05:43.956Z,100972.08
2018-02-10T13:08:13.234Z,100966.41
2018-02-10T13:10:43.066Z,100963.21
2018-02-10T13:13:12.457Z,100966.34
2018-02-10T13:15:42.016Z,100966.25
2018-02-10T13:18:11.316Z,100951.75
2018-02-10T13:20:40.630Z,100965.81
2018-02-10T13:23:10.147Z,100966.17
2018-02-10T13:25:39.694Z,100966.91
2018-02-10T13:28:09.024Z,100954.65
2018-02-10T13:30:38.496Z,100957.41
2018-02-10T13:33:08.440Z,100952.67
2018-02-10T13:35:37.828Z,100944.45
2018-02-10T13:38:07.266Z,100940.03
2018-02-10T13:40:36.793Z,100946.28
2018-02-10T13:43:06.248Z,100949.97
2018-02-10T13:45:35.718Z,100952.05
2018-02-10T13:48:05.076Z,100957.19
2018-02-10T13:50:34.697Z,100959.65
2018-02-10T13:53:03.994Z,100969.62
2018-02-10T13:55:33.165Z,100971.56
2018-02-10T13:58:02.305Z,100963.50
2018-02-10T14:00:31.856Z,100965.69
2018-02-10T14:03:02.017Z,100961.58
2018-02-10T14:05:31.406Z,100961.20
2018-02-10T14:08:00.782Z,100965.58
2018-02-10T14:10:30.360Z,100949.15
2018-02-10T14:13:00.038Z,100963.81
2018-02-10T14:15:29.409Z,100962.51
2018-02-10T14:17:58.825Z,100961.32
2018-02-10T14:20:28.096Z,100964.83
2018-02-10T14:22:57.633Z,100958.99
2018-02-10T14:25:27.821Z,100967.34
2018-02-10T14:27:57.528Z,100965.23
2018-02-10T14:30:27.949Z,100973.89
2018-02-10T14:32:57.468Z,100965.73
2018-02-10T14:35:28.638Z,100958.21
2018-02-10T14:37:58.034Z,100962.25
2018-02-10T14:40:27.614Z,100963.24
2018-02-10T14:42:57.104Z,100967.05
2018-02-10T14:45:26.943Z,100963.91
2018-02-10T14:47:56.423Z,100965.71
2018-02-10T14:50:25.567Z,100956.81
2018-02-10T14:52:55.052Z,100958.56
2018-02-10T14:55:24.744Z,100955.61
2018-02-10T14:57:53.873Z,100959.34
2018-02-10T15:00:23.454Z,100972.11
2018-02-10T15:02:52.967Z,100966.55
2018-02-10T15:05:22.873Z,100966.83
2018-02-10T15:07:52.112Z,100959.77
2018-02-10T15:10:21.568Z,100960.70
2018-02-10T15:12:50.868Z,100956.67
2018-02-10T15:15:20.249Z,100955.40
2018-02-10T15:17:50.186Z,100953.31
2018-02-10T15:20:20.006Z,100956.00
2018-02-10T15:22:49.632Z,100955.46
2018-02-10T15:25:19.122Z,100961.39
2018-02-10T15:27:48.523Z,100961.03
2018-02-10T15:30:29.188Z,100944.34
2018-02-10T15:33:09.206Z,100950.31
2018-02-10T15:35:38.739Z,100944.95
2018-02-10T15:38:08.050Z,100939.06
2018-02-10T15:40:37.873Z,100937.42
2018-02-10T15:43:07.482Z,100944.96
2018-02-10T15:45:36.837Z,100946.56
2018-02-10T15:48:06.248Z,100934.27
2018-02-10T15:50:35.575Z,100933.48
2018-02-10T15:53:04.855Z,100928.49
2018-02-10T15:55:34.338Z,100931.56
2018-02-10T15:58:04.111Z,100925.45
2018-02-10T16:00:33.454Z,100921.01
2018-02-10T16:03:02.844Z,100924.72
2018-02-10T16:05:32.281Z,100927.69
2018-02-10T16:08:01.895Z,100928.50
2018-02-10T16:10:31.140Z,100927.53
2018-02-10T16:13:00.566Z,100918.55
2018-02-10T16:15:30.068Z,100917.08
2018-02-10T16:17:59.322Z,100914.65
2018-02-10T16:20:28.721Z,100918.55
2018-02-10T16:22:58.335Z,100915.10
2018-02-10T16:25:28.174Z,100907.16
2018-02-10T16:27:57.738Z,100910.13
2018-02-10T16:30:27.073Z,100916.02
2018-02-10T16:32:56.262Z,100915.33
2018-02-10T16:35:25.759Z,100910.67
2018-02-10T16:37:55.468Z,100908.83
2018-02-10T16:40:25.014Z,100889.24
2018-02-10T16:42:54.182Z,100896.59
2018-02-10T16:45:23.369Z,100898.53
2018-02-10T16:47:52.901Z,100888.37
2018-02-10T16:50:22.619Z,100891.42
2018-02-10T16:52:51.922Z,100886.02
2018-02-10T16:55:21.424Z,100890.23
2018-02-10T16:57:50.762Z,100885.72
2018-02-10T17:00:20.177Z,100878.98
2018-02-10T17:02:49.379Z,100886.84
2018-02-10T17:05:18.664Z,100889.34
2018-02-10T17:07:48.061Z,100873.38
2018-02-10T17:10:17.542Z,100862.72
2018-02-10T17:12:46.974Z,100865.27
2018-02-10T17:15:16.069Z,100868.32
2018-02-10T17:17:45.296Z,100866.02
2018-02-10T17:20:15.120Z,100857.53
2018-02-10T17:22:44.445Z,100865.12
2018-02-10T17:25:13.910Z,100864.67
2018-02-10T17:27:43.309Z,100858.17
2018-02-10T17:30:13.028Z,100858.04
2018-02-10T17:32:42.552Z,100851.87
2018-02-10T17:35:12.154Z,100827.27
2018-02-10T17:37:41.677Z,100831.30
2018-02-10T17:40:11.007Z,100838.17
2018-02-10T17:42:40.956Z,100812.28
2018-02-10T17:45:10.676Z,100820.13
2018-02-10T17:47:40.393Z,100810.02
2018-02-10T17:50:10.242Z,100793.83
2018-02-10T17:52:39.843Z,100785.09
2018-02-10T17:55:09.624Z,100767.43
2018-02-10T17:57:39.184Z,100759.50
2018-02-10T18:00:08.930Z,100747.19
2018-02-10T18:02:38.338Z,100750.61
2018-02-10T18:05:07.878Z,100753.04
2018-02-10T18:07:37.408Z,100758.28
2018-02-10T18:10:06.785Z,100762.25
2018-02-10T18:12:36.585Z,100767.75
2018-02-10T18:15:06.022Z,100762.67
2018-02-10T18:17:35.665Z,100758.25
2018-02-10T18:20:04.954Z,100742.86
2018-02-10T18:22:34.396Z,100743.39
2018-02-10T18:25:04.225Z,100724.41
2018-02-10T18:27:34.010Z,100731.58
2018-02-10T18:30:03.861Z,100728.34
2018-02-10T18:32:33.296Z,100730.36
2018-02-10T18:35:02.978Z,100738.61
2018-02-10T18:37:32.334Z,100750.56
2018-02-10T18:40:01.812Z,100755.83
2018-02-10T18:42:31.345Z,100751.08
2018-02-10T18:45:00.846Z,100758.11
2018-02-10T18:47:30.261Z,100758.23
2018-02-10T18:49:59.553Z,100758.50
2018-02-10T18:52:29.164Z,100754.27
2018-02-10T18:54:58.534Z,100737.97
2018-02-10T18:57:27.984Z,100743.95
2018-02-10T18:59:57.801Z,100762.77
2018-02-10T19:02:27.210Z,100748.19
2018-02-10T19:04:56.618Z,100718.97
2018-02-10T19:07:26.008Z,100735.69
2018-02-10T19:09:55.498Z,100724.75
2018-02-10T19:12:25.138Z,100702.72
2018-02-10T19:14:54.812Z,100708.13
2018-02-10T19:17:24.242Z,100697.00
2018-02-10T19:19:53.472Z,100691.51
2018-02-10T19:22:22.790Z,100698.97
2018-02-10T19:24:52.064Z,100699.19
2018-02-10T19:27:21.536Z,100703.33
2018-02-10T19:29:50.916Z,100698.64
2018-02-10T19:32:20.505Z,100700.23
2018-02-10T19:34:49.932Z,100700.63
2018-02-10T19:37:19.241Z,100692.70
2018-02-10T19:39:48.555Z,100697.63
2018-02-10T19:42:17.967Z,100696.39
2018-02-10T19:44:47.680Z,100689.74
2018-02-10T19:47:16.746Z,100691.89
2018-02-10T19:49:46.156Z,100685.45
2018-02-10T19:52:15.726Z,100680.46
2018-02-10T19:54:44.897Z,100669.17
2018-02-10T19:57:14.489Z,100661.53
2018-02-10T19:59:44.369Z,100646.77
2018-02-10T20:02:13.880Z,100650.64
2018-02-10T20:04:43.695Z,100634.07
2018-02-10T20:07:13.721Z,100643.16
2018-02-10T20:09:43.281Z,100628.18
2018-02-10T20:12:12.740Z,100619.78
2018-02-10T20:14:42.234Z,100629.16
2018-02-10T20:17:11.699Z,100618.69
2018-02-10T20:19:41.056Z,100625.11
2018-02-10T20:22:10.933Z,100613.24
2018-02-10T20:24:40.246Z,100582.80
2018-02-10T20:27:09.282Z,100580.80
2018-02-10T20:29:38.470Z,100574.61
2018-02-10T20:32:07.506Z,100571.22
2018-02-10T20:34:36.927Z,100570.26
2018-02-10T20:37:06.205Z,100587.32
2018-02-10T20:39:35.540Z,100586.16
2018-02-10T20:42:04.739Z,100594.36
2018-02-10T20:44:34.126Z,100588.61
2018-02-10T20:47:03.405Z,100593.32
2018-02-10T20:49:32.874Z,100578.27
2018-02-10T20:52:02.278Z,100574.85
2018-02-10T20:54:31.482Z,100588.11
2018-02-10T20:57:00.891Z,100583.53
2018-02-10T20:59:30.461Z,100595.24
2018-02-10T21:01:59.562Z,100604.02
2018-02-10T21:04:28.869Z,100588.03
2018-02-10T21:06:58.046Z,100567.16
2018-02-10T21:09:27.318Z,100574.08
2018-02-10T21:11:57.181Z,100579.77
2018-02-10T21:14:26.870Z,100577.38
2018-02-10T21:16:56.097Z,100577.17
2018-02-10T21:19:25.355Z,100595.19
2018-02-10T21:21:54.685Z,100610.93
2018-02-10T21:24:23.873Z,100595.07
2018-02-10T21:26:53.165Z,100581.48
2018-02-10T21:29:22.549Z,100575.83
2018-02-10T21:31:51.995Z,100567.26
2018-02-10T21:34:21.899Z,100606.84
2018-02-10T21:36:51.018Z,100592.86
2018-02-10T21:39:20.358Z,100597.08
2018-02-10T21:41:49.465Z,100577.17
2018-02-10T21:44:18.792Z,100564.77
2018-02-10T21:46:48.164Z,100572.58
2018-02-10T21:49:17.365Z,100555.27
2018-02-10T21:51:46.786Z,100555.61
2018-02-10T21:54:16.221Z,100561.75
2018-02-10T21:56:45.830Z,100563.03
2018-02-10T21:59:15.301Z,100561.91
2018-02-10T22:01:44.285Z,100568.86
2018-02-10T22:04:14.103Z,100569.59
2018-02-10T22:06:43.437Z,100571.54
2018-02-10T22:09:13.074Z,100577.93
2018-02-10T22:11:42.553Z,100569.62
2018-02-10T22:14:11.756Z,100561.25
2018-02-10T22:16:40.946Z,100533.30
2018-02-10T22:19:10.311Z,100549.45
2018-02-10T22:21:39.546Z,100532.53
2018-02-10T22:24:08.615Z,100524.07
2018-02-10T22:26:37.973Z,100527.97
2018-02-10T22:29:07.115Z,100513.59
2018-02-10T22:31:36.387Z,100514.81
2018-02-10T22:34:05.506Z,100511.72
2018-02-10T22:36:34.856Z,100515.23
2018-02-10T22:39:04.200Z,100491.19
2018-02-10T22:41:33.301Z,100514.14
2018-02-10T22:44:02.728Z,100492.16
2018-02-10T22:46:31.898Z,100492.66
2018-02-10T22:49:01.041Z,100468.09
2018-02-10T22:51:30.297Z,100476.59
2018-02-10T22:53:59.785Z,100476.97
2018-02-10T22:56:30.021Z,100478.06
2018-02-10T22:58:59.121Z,100480.50
2018-02-10T23:01:28.134Z,100479.74
2018-02-10T23:03:57.449Z,100480.81
2018-02-10T23:06:27.127Z,100472.64
2018-02-10T23:08:56.444Z,100471.39
2018-02-10T23:11:25.664Z,100474.56
2018-02-10T23:13:54.477Z,100474.73
2018-02-10T23:16:23.692Z,100474.27
2018-02-10T23:18:52.588Z,100466.06
2018-02-10T23:21:21.530Z,100458.63
2018-02-10T23:23:50.712Z,100447.27
2018-02-10T23:26:20.304Z,100425.98
2018-02-10T23:28:49.522Z,100421.58
2018-02-10T23:31:18.670Z,100401.41
2018-02-10T23:33:48.005Z,100392.47
2018-02-10T23:36:17.092Z,100391.78
2018-02-10T23:38:46.201Z,100389.09
2018-02-10T23:41:15.333Z,100372.00
2018-02-10T23:43:44.388Z,100381.38
2018-02-10T23:46:13.635Z,100374.25
2018-02-10T23:48:42.941Z,100378.97
2018-02-10T23:51:12.443Z,100378.73
2018-02-10T23:53:41.482Z,100377.23
2018-02-10T23:56:10.599Z,100371.31
2018-02-10T23:58:39.482Z,100364.23
